Terminal Aerodrome Forecast
Issued by NWS

Current Version | Previous Version | Text Only | Print | Product List | Glossary On
Versions: 1 2 3 4 5 6 7 8 9 10 11 12 13 14 15 16 17 18 19 20 21 22 23 24 25 26 27 28 29 30 31 32 33 34 35 36 37 38 39 40 41 42 43 44
000 FTUS41 KGYX 051220 AAB TAFMHT TAF AMD KMHT 051220Z 0512/0612 33003KT 3/4SM -SN OVC021 TEMPO 0513/0514 1/2SM SN OVC009 FM051400 VRB03KT 1 1/2SM -SN BR OVC025 FM051500 32005KT 5SM BR BKN025 OVC040 FM060000 30008KT P6SM SKC=

USA.gov is the U.S. government's official web portal to all federal, state and local government web resources and services.